createdAt,value
2022-12-19T05:04:25.282Z,-5.80
2022-12-19T05:06:27.924Z,-7.60
2022-12-19T05:08:30.856Z,-7.60
2022-12-19T05:10:33.700Z,-7.60
2022-12-19T05:12:36.904Z,-7.60
2022-12-19T05:14:39.745Z,-7.50
2022-12-19T05:16:43.114Z,-7.60
2022-12-19T05:18:46.774Z,-7.60
2022-12-19T05:20:49.853Z,-7.60
2022-12-19T05:22:52.337Z,-7.70
2022-12-19T05:24:55.054Z,-7.70
2022-12-19T05:26:57.997Z,-7.60
2022-12-19T05:29:00.618Z,-7.70
2022-12-19T05:31:15.131Z,-7.70
2022-12-19T05:33:17.985Z,-7.70
2022-12-19T05:35:20.976Z,-7.70
2022-12-19T05:37:24.361Z,-7.70
2022-12-19T05:39:27.005Z,-7.70
2022-12-19T05:41:30.266Z,-7.70
2022-12-19T05:43:32.795Z,-7.70
2022-12-19T05:45:35.623Z,-7.70
2022-12-19T05:47:39.051Z,-7.70
2022-12-19T05:49:41.800Z,-7.70
2022-12-19T05:51:47.260Z,-7.80
2022-12-19T05:53:50.484Z,-7.80
2022-12-19T05:55:53.820Z,-7.70
2022-12-19T05:57:56.765Z,-7.70
2022-12-19T05:59:59.399Z,-7.80
2022-12-19T06:02:02.487Z,-7.80
2022-12-19T06:04:05.439Z,-7.80
2022-12-19T06:06:11.521Z,-7.80
2022-12-19T06:08:14.200Z,-7.80
2022-12-19T06:10:16.920Z,-7.80
2022-12-19T06:12:19.589Z,-7.80
2022-12-19T06:14:22.321Z,-7.80
2022-12-19T06:16:26.444Z,-7.80
2022-12-19T06:18:41.595Z,-7.80
2022-12-19T06:20:58.007Z,-7.80
2022-12-19T06:23:00.794Z,-7.80
2022-12-19T06:25:04.095Z,-7.80
2022-12-19T06:27:06.839Z,-7.80
2022-12-19T06:29:21.360Z,-7.80
2022-12-19T06:31:26.262Z,-7.80
2022-12-19T06:33:31.007Z,-7.80
2022-12-19T06:35:33.935Z,-7.80
2022-12-19T06:37:39.359Z,-7.80
2022-12-19T06:39:42.374Z,-7.70
2022-12-19T06:42:03.756Z,-7.70
2022-12-19T06:44:09.123Z,-7.60
2022-12-19T06:46:13.164Z,-7.60
2022-12-19T06:48:16.067Z,-7.60
2022-12-19T06:50:19.445Z,-7.60
2022-12-19T06:52:23.165Z,-7.60
2022-12-19T06:54:26.089Z,-7.60
2022-12-19T06:56:28.865Z,-7.60
2022-12-19T06:58:31.619Z,-7.60
2022-12-19T07:00:37.138Z,-7.60
2022-12-19T07:02:41.047Z,-7.50
2022-12-19T07:04:52.834Z,-7.60
2022-12-19T07:06:56.266Z,-7.50
2022-12-19T07:08:58.904Z,-7.30
2022-12-19T07:11:01.594Z,-7.10
2022-12-19T07:13:05.333Z,-6.90
2022-12-19T07:15:08.834Z,-6.80
2022-12-19T07:17:13.114Z,-6.70
2022-12-19T07:19:15.914Z,-6.80
2022-12-19T07:21:19.249Z,-6.60
2022-12-19T07:23:25.154Z,-6.80
2022-12-19T07:25:28.204Z,-6.80
2022-12-19T07:27:35.665Z,-6.80
2022-12-19T07:29:38.804Z,-6.70
2022-12-19T07:31:41.883Z,-6.50
2022-12-19T07:33:45.329Z,-6.50
2022-12-19T07:35:47.790Z,-6.40
2022-12-19T07:37:50.973Z,-6.30
2022-12-19T07:39:54.184Z,-6.10
2022-12-19T07:41:56.812Z,-6.10
2022-12-19T07:43:59.832Z,-6.10
2022-12-19T07:46:02.967Z,-6.20
2022-12-19T07:48:07.842Z,-6.30
2022-12-19T07:50:10.670Z,-6.30
2022-12-19T07:52:13.962Z,-6.30
2022-12-19T07:54:16.859Z,-6.30
2022-12-19T07:56:19.581Z,-6.20
2022-12-19T07:58:22.736Z,-6.10
2022-12-19T08:00:25.465Z,-6.10
2022-12-19T08:02:28.219Z,-6.00
2022-12-19T08:04:31.253Z,-5.90
2022-12-19T08:06:39.110Z,-5.90
2022-12-19T08:08:43.630Z,-5.80
2022-12-19T08:10:46.303Z,-5.60
2022-12-19T08:12:49.327Z,-5.50
2022-12-19T08:14:56.988Z,-5.50
2022-12-19T08:19:27.312Z,-5.60
2022-12-19T08:21:31.175Z,-5.50
2022-12-19T08:23:34.684Z,-5.50
2022-12-19T08:25:40.791Z,-5.50
2022-12-19T08:27:44.043Z,-5.50
2022-12-19T08:29:47.982Z,-5.40
2022-12-19T08:31:50.642Z,-5.40
2022-12-19T08:33:58.653Z,-5.30
2022-12-19T08:36:08.522Z,-5.30
2022-12-19T08:38:11.783Z,-5.40
2022-12-19T08:40:14.377Z,-5.20
2022-12-19T08:42:17.386Z,-5.10
2022-12-19T08:44:20.074Z,-5.00
2022-12-19T08:46:23.452Z,-4.80
2022-12-19T08:48:26.898Z,-4.60
2022-12-19T08:50:29.517Z,-4.30
2022-12-19T08:52:32.473Z,-4.10
2022-12-19T08:54:35.225Z,-3.90
2022-12-19T08:56:37.933Z,-3.60
2022-12-19T08:58:52.011Z,-3.30
2022-12-19T09:01:03.357Z,-3.20
2022-12-19T09:03:08.595Z,-3.00
2022-12-19T09:06:00.651Z,-2.90
2022-12-19T09:07:38.513Z,-2.80
2022-12-19T09:09:42.233Z,-2.70
2022-12-19T09:11:47.782Z,-2.40
2022-12-19T09:13:54.343Z,-2.70
2022-12-19T09:16:12.653Z,-2.90
2022-12-19T09:18:18.468Z,-2.80
2022-12-19T09:20:23.571Z,-2.90
2022-12-19T09:22:27.776Z,-3.20
2022-12-19T09:24:32.398Z,-3.30
2022-12-19T09:26:35.978Z,-3.40
2022-12-19T09:28:40.394Z,-3.40
2022-12-19T09:30:43.524Z,-3.50
2022-12-19T09:32:46.353Z,-3.50
2022-12-19T09:34:49.746Z,-3.40
2022-12-19T09:36:52.725Z,-3.40
2022-12-19T09:38:56.922Z,-3.50
2022-12-19T09:40:59.745Z,-3.60
2022-12-19T09:43:41.381Z,-3.50
2022-12-19T09:46:08.310Z,-3.40
2022-12-19T09:48:24.069Z,-3.30
2022-12-19T09:50:37.324Z,-3.20
2022-12-19T09:52:48.445Z,-3.20
2022-12-19T09:55:13.967Z,-3.30
2022-12-19T09:57:32.288Z,-3.30
2022-12-19T09:59:49.725Z,-3.40
2022-12-19T10:02:16.561Z,-3.30
2022-12-19T10:04:19.894Z,-3.30
2022-12-19T10:07:11.538Z,-3.20
2022-12-19T10:09:22.322Z,-3.20
2022-12-19T10:12:38.218Z,-3.10
2022-12-19T10:14:14.989Z,-3.00
2022-12-19T10:16:31.004Z,-3.00
2022-12-19T10:18:56.801Z,-3.00
2022-12-19T10:21:58.973Z,-3.10
2022-12-19T10:24:23.588Z,-2.90
2022-12-19T10:26:47.464Z,-2.90
2022-12-19T10:29:09.484Z,-2.90
2022-12-19T10:31:22.625Z,-2.80
2022-12-19T10:33:35.675Z,-2.90
2022-12-19T10:35:46.335Z,-2.90
2022-12-19T10:38:09.547Z,-2.90
2022-12-19T10:40:29.449Z,-2.90
2022-12-19T10:42:40.088Z,-2.90
2022-12-19T10:44:45.282Z,-2.90
2022-12-19T10:46:50.217Z,-2.90
2022-12-19T10:48:54.490Z,-2.90
2022-12-19T10:50:57.003Z,-2.80
2022-12-19T10:53:07.646Z,-2.90
2022-12-19T10:55:31.796Z,-2.80
2022-12-19T10:57:35.277Z,-2.80
2022-12-19T10:59:39.325Z,-2.80
2022-12-19T11:01:42.831Z,-2.70
2022-12-19T11:03:52.247Z,-2.70
2022-12-19T11:05:58.869Z,-2.70
2022-12-19T11:08:08.655Z,-2.80
2022-12-19T11:12:53.856Z,-2.70
2022-12-19T11:17:25.245Z,-2.60
2022-12-19T11:20:12.693Z,-2.60
2022-12-19T11:29:17.814Z,-2.60
2022-12-19T11:29:31.325Z,-2.50
2022-12-19T11:29:33.380Z,-2.60
2022-12-19T11:30:45.321Z,-2.50
2022-12-19T11:30:45.725Z,-2.50
2022-12-19T11:33:55.679Z,-2.40
2022-12-19T11:36:00.185Z,-2.50
2022-12-19T11:38:06.706Z,-2.50
2022-12-19T11:40:33.565Z,-2.50
2022-12-19T11:45:50.554Z,-2.40
2022-12-19T11:47:58.468Z,-2.40
2022-12-19T11:50:10.229Z,-2.40
2022-12-19T11:55:26.167Z,-2.50
2022-12-19T11:57:29.634Z,-2.50
2022-12-19T11:59:38.977Z,-2.50
2022-12-19T12:02:11.464Z,-2.40
2022-12-19T12:04:27.579Z,-2.40
2022-12-19T12:06:35.455Z,-2.50
2022-12-19T12:11:06.981Z,-2.50
2022-12-19T12:19:05.794Z,-2.50
2022-12-19T12:23:59.900Z,-2.40
2022-12-19T12:29:21.113Z,-2.40
2022-12-19T12:31:07.301Z,-2.30
2022-12-19T12:31:17.816Z,-2.40
2022-12-19T12:31:58.650Z,-2.30
2022-12-19T12:32:04.825Z,-2.40
2022-12-19T12:32:05.067Z,-2.40
2022-12-19T12:35:56.640Z,-2.40
2022-12-19T12:38:21.434Z,-2.40
2022-12-19T12:40:51.055Z,-2.30
2022-12-19T12:42:59.790Z,-2.30
2022-12-19T12:45:19.256Z,-2.20
2022-12-19T12:47:26.327Z,-2.20
2022-12-19T12:49:46.396Z,-2.10
2022-12-19T12:51:49.847Z,-2.10
2022-12-19T12:54:15.044Z,-2.00
2022-12-19T12:56:19.096Z,-2.00
2022-12-19T12:58:46.388Z,-2.00
2022-12-19T16:03:23.524Z,-2.20
2022-12-19T16:05:19.228Z,-2.20
2022-12-19T16:07:24.138Z,-2.10
2022-12-19T16:09:28.406Z,-2.10
2022-12-19T16:11:30.986Z,-2.10
2022-12-19T16:13:36.148Z,-2.10
2022-12-19T16:15:40.725Z,-2.00
2022-12-19T16:17:43.525Z,-2.00
2022-12-19T16:19:46.196Z,-2.00
2022-12-19T16:21:48.699Z,-2.00
2022-12-19T16:23:51.585Z,-2.00
2022-12-19T16:25:54.493Z,-2.00
2022-12-19T16:27:59.122Z,-2.00
2022-12-19T16:30:24.277Z,-2.00
2022-12-19T16:32:26.683Z,-1.90
2022-12-19T16:34:29.610Z,-1.90
2022-12-19T16:36:32.147Z,-1.90
2022-12-19T16:38:35.079Z,-1.90
2022-12-19T16:40:38.435Z,-1.90
2022-12-19T16:42:41.263Z,-1.80
2022-12-19T16:44:48.316Z,-1.80
2022-12-19T16:46:51.964Z,-1.80
2022-12-19T16:48:54.725Z,-1.80
2022-12-19T16:50:58.805Z,-1.80
2022-12-19T16:53:01.365Z,-1.80
2022-12-19T16:55:04.089Z,-2.00
2022-12-19T16:57:14.675Z,-1.70
2022-12-19T16:59:21.307Z,-1.90
2022-12-19T17:01:24.441Z,-1.90
2022-12-19T17:03:28.097Z,-1.90
2022-12-19T17:05:33.379Z,-1.90
2022-12-19T17:07:36.163Z,-1.90
2022-12-19T17:09:38.825Z,-1.80
2022-12-19T17:11:46.619Z,-1.80
2022-12-19T17:13:52.223Z,-1.80
2022-12-19T17:15:57.242Z,-1.80
2022-12-19T17:18:03.635Z,-1.80
2022-12-19T18:11:03.565Z,-1.80
2022-12-19T18:13:06.452Z,-1.90
2022-12-19T18:15:10.689Z,-1.80
2022-12-19T18:17:16.979Z,-1.80
2022-12-19T18:19:22.567Z,-1.70
2022-12-19T18:21:25.536Z,-1.70
2022-12-19T18:23:29.295Z,-1.70
2022-12-19T18:25:33.064Z,-1.70
2022-12-19T18:27:35.643Z,-1.70
2022-12-19T18:29:38.535Z,-1.60
2022-12-19T18:31:50.067Z,-1.60
2022-12-19T18:33:57.024Z,-1.60
2022-12-19T18:36:01.084Z,-1.60
2022-12-19T18:38:08.095Z,-1.60
2022-12-19T18:40:22.076Z,-1.60
2022-12-19T18:42:27.765Z,-1.60
2022-12-19T18:44:30.859Z,-1.60
2022-12-19T18:46:35.209Z,-1.60
2022-12-19T18:48:38.303Z,-1.60
2022-12-19T18:50:40.984Z,-1.60
2022-12-19T18:52:44.225Z,-1.60
2022-12-19T18:54:46.778Z,-1.70
2022-12-19T18:56:49.634Z,-1.70
2022-12-19T18:58:52.276Z,-1.70
2022-12-19T19:00:59.351Z,-1.70
2022-12-19T19:03:06.717Z,-1.80
2022-12-19T19:05:15.736Z,-1.80
2022-12-19T19:07:18.554Z,-1.80
2022-12-19T19:09:22.276Z,-1.80
2022-12-19T19:11:25.988Z,-1.80
2022-12-19T19:13:29.584Z,-1.80
2022-12-19T19:15:34.908Z,-1.80
2022-12-19T19:17:38.007Z,-1.80
2022-12-19T19:19:41.715Z,-1.80
2022-12-19T19:21:44.685Z,-1.80
2022-12-19T19:23:52.744Z,-1.80
2022-12-19T19:25:55.496Z,-1.80
2022-12-19T19:27:58.885Z,-1.80
2022-12-19T19:30:02.062Z,-1.80
2022-12-19T19:32:05.245Z,-1.80
2022-12-19T19:34:17.084Z,-1.80
2022-12-19T19:36:28.505Z,-1.80
2022-12-19T19:38:32.245Z,-1.80
2022-12-19T19:40:37.584Z,-1.80
2022-12-19T19:42:40.145Z,-1.80
2022-12-19T19:44:42.702Z,-1.80
2022-12-19T19:46:46.869Z,-1.80
2022-12-19T19:48:49.705Z,-1.80
2022-12-19T19:50:52.299Z,-1.80
2022-12-19T19:52:54.815Z,-1.80
2022-12-19T19:54:57.367Z,-1.80
2022-12-19T19:57:00.112Z,-1.80
2022-12-19T19:59:02.793Z,-1.70
2022-12-19T20:01:13.596Z,-1.80
2022-12-19T20:03:22.281Z,-1.70
2022-12-19T20:05:26.577Z,-1.70
2022-12-19T20:07:29.446Z,-1.70
2022-12-19T20:09:33.004Z,-1.70
2022-12-19T20:11:35.455Z,-1.70
2022-12-19T20:13:39.181Z,-1.60
2022-12-19T20:15:47.780Z,-1.60
2022-12-19T20:17:53.246Z,-1.60
2022-12-19T20:19:56.505Z,-1.60
2022-12-19T20:22:00.788Z,-1.60
2022-12-19T20:24:03.506Z,-1.60
2022-12-19T20:26:07.215Z,-2.40
2022-12-19T20:28:10.288Z,-1.60
2022-12-19T20:30:13.344Z,-1.50
2022-12-19T20:32:15.896Z,-1.50
2022-12-19T20:34:20.538Z,-1.40
2022-12-19T20:36:24.574Z,-1.20
2022-12-19T20:38:27.212Z,-1.50
2022-12-19T20:40:29.848Z,-1.40
2022-12-19T20:42:32.397Z,-1.40
2022-12-19T20:44:35.126Z,-1.40
2022-12-19T20:46:39.145Z,-1.30
2022-12-19T20:48:42.903Z,-1.30
2022-12-19T20:50:45.672Z,-1.30
2022-12-19T20:52:48.245Z,-1.30
2022-12-19T20:54:51.096Z,-1.20
2022-12-19T20:56:53.674Z,-1.20
2022-12-19T20:58:56.344Z,-1.10
2022-12-19T21:01:13.527Z,-1.10
2022-12-19T21:03:31.526Z,-1.00
2022-12-19T21:05:34.185Z,-0.90
2022-12-19T21:07:36.626Z,-0.90
2022-12-19T21:09:39.355Z,-0.90
2022-12-19T21:11:41.856Z,-0.90
2022-12-19T21:13:44.713Z,-0.90
2022-12-19T21:15:51.797Z,-0.80
2022-12-19T21:17:54.498Z,-0.80
2022-12-19T21:19:57.126Z,-0.60
2022-12-19T21:21:59.731Z,-0.70
2022-12-19T21:24:02.739Z,-0.70
2022-12-19T21:26:06.108Z,-0.70
2022-12-19T21:28:09.272Z,-0.70
2022-12-19T21:30:11.954Z,-0.70
2022-12-19T21:32:18.872Z,-0.70
2022-12-19T21:34:21.787Z,-0.70
2022-12-19T21:36:26.185Z,-0.60
2022-12-19T21:38:28.634Z,-0.60
2022-12-19T21:40:31.176Z,-0.20
2022-12-19T21:42:33.635Z,-0.70
2022-12-19T21:44:36.097Z,-0.60
2022-12-19T21:46:39.129Z,-0.60
2022-12-19T21:48:44.626Z,-0.50
2022-12-19T21:50:55.415Z,-0.70
2022-12-19T21:52:57.865Z,-0.50
2022-12-19T21:55:00.603Z,-0.50
2022-12-19T21:57:03.344Z,-0.40
2022-12-19T21:59:11.338Z,-0.40
2022-12-19T22:01:15.032Z,-0.40
2022-12-19T22:03:17.776Z,-0.30
2022-12-19T22:05:20.629Z,0.10
2022-12-19T22:07:23.264Z,-0.30
2022-12-19T22:09:26.672Z,-0.20
2022-12-19T22:11:31.836Z,-0.30
